Main page
METAR-TAF:

METAR-TAF

Airports :

Šiauliai International Airport

Šiauliai, Lithuania

latitude: 55-53-38N, longitude: 023-23-42E, elevation: 135 m

Current weather observation

The report was made 35 minutes ago, at 05:50 UTC
Wind 4 kt from the Northwest
Temperature -20°C
Humidity 84%
Pressure 1020 hPa
Visibility: 0450 m
freezing fog

METAR: EYSA 170550Z 32004KT 0600 0450SE R14L/0750U FZFG VV001 M20/M22 Q1020 R14L/29//95 R14R/29//95 RED TEMPO 0800 AMB

Time: 08:25 (06:25 UTC)

Forecast

The report was made 1 hour and 17 minutes ago, at 05:08 UTC
Forecast valid from 17 at 06 UTC to 17 at 15 UTC
Wind 5 kt from variable directions
Visibility: 5000 m
Scattered clouds at a height of 500 ft
mist
Temporary
from 17 at 06 UTC to 17 at 09 UTC
Visibility: 0600 m
at a height of 200 ft
freezing fog
Becoming
from 17 at 09 UTC to 17 at 10 UTC
Visibility: 8000 m
Scattered clouds at a height of 1000 ft

TAF: EYSA 170508Z 1706/1715 VRB05KT 5000 BR SCT005 TEMPO 1706/1709 0600 FZFG VV002 BECMG 1709/1710 8000 NSW SCT010

Weather observations and forecasts of more than 4000 airports (METAR and TAF reports).

The available stations are represented by yellow and red dots on the map.

Hover mouse over dot to see the name of the station.

Then click to see weather observations and forecasts.

To change the map : click on the green buttons with a black cross to zoom in, on the green button with a dash to zoom out, or on the green arrows for adjacent maps.


METAR-TAF: